Time;durP1;ratioP1;P1;durP2;ratioP2;P2;SDS_P1;SDS_P2;PMS_P1;PMS_P2;Temp;Humidity;BMP_temperature;BMP_pressure;BME280_temperature;BME280_humidity;BME280_pressure;Samples;Min_cycle;Max_cycle;Signal;HPM_P1;HPM_P2
2021/06/24 00:02:05;;;;;;;0.10;0.10;;;15.60;92.30;;;18.96;77.84;102198.00;5008006;28;97066;-70
2021/06/24 00:04:53;;;;;;;0.32;0.32;;;15.60;92.30;;;19.02;77.92;102191.28;5035494;27;97653;-70
2021/06/24 00:07:21;;;;;;;0.98;0.60;;;15.60;92.30;;;18.99;77.35;102192.69;5027936;27;98042;-70
2021/06/24 00:09:50;;;;;;;0.90;0.82;;;15.60;92.30;;;18.94;77.87;102181.22;5026162;27;96945;-70
2021/06/24 00:12:21;;;;;;;0.13;0.13;;;15.60;92.30;;;18.97;78.00;102177.88;5032444;27;96844;-70
2021/06/24 00:14:50;;;;;;;1.60;0.50;;;15.60;92.30;;;18.96;77.94;102185.19;5032774;27;96800;-70
2021/06/24 00:17:19;;;;;;;1.65;1.40;;;15.60;92.30;;;18.97;77.96;102186.00;5033201;27;97831;-70
2021/06/24 00:19:47;;;;;;;0.00;0.00;;;15.60;92.30;;;18.92;77.98;102184.25;5009162;27;97659;-70
2021/06/24 00:22:16;;;;;;;0.03;0.03;;;15.60;92.30;;;18.90;78.43;102188.38;5027960;27;97803;-70
2021/06/24 00:24:45;;;;;;;0.20;0.20;;;15.60;92.30;;;18.90;77.96;102180.25;5029213;27;96737;-70
2021/06/24 00:27:14;;;;;;;0.25;0.25;;;15.60;92.30;;;18.94;78.23;102190.16;5030702;27;96825;-70
2021/06/24 00:29:44;;;;;;;0.40;0.40;;;15.60;92.30;;;18.97;77.70;102188.72;5015548;27;97637;-70
2021/06/24 00:32:13;;;;;;;1.05;0.52;;;15.60;92.30;;;18.95;78.09;102190.97;5024001;27;101017;-70
2021/06/24 00:34:42;;;;;;;0.70;0.35;;;15.60;92.40;;;18.92;78.23;102188.91;5037771;27;96912;-70
2021/06/24 00:37:11;;;;;;;0.68;0.32;;;15.60;92.30;;;18.94;78.07;102197.53;4997802;27;97546;-70
2021/06/24 00:39:41;;;;;;;0.55;0.55;;;15.60;92.30;;;18.96;78.24;102198.00;5008865;28;97904;-70
2021/06/24 00:42:10;;;;;;;0.10;0.10;;;15.60;92.30;;;18.95;78.00;102191.75;5006286;27;97034;-70
2021/06/24 00:44:38;;;;;;;0.45;0.45;;;15.60;92.30;;;18.98;78.08;102195.75;5022046;27;96997;-70
2021/06/24 00:47:09;;;;;;;0.30;0.30;;;15.60;92.30;;;18.99;77.98;102197.34;5021846;27;97154;-70
2021/06/24 00:49:38;;;;;;;0.10;0.10;;;15.60;92.30;;;18.94;77.86;102208.38;4986011;27;96949;-70
2021/06/24 00:52:08;;;;;;;0.10;0.10;;;15.60;92.30;;;18.89;78.12;102205.03;5019375;28;96943;-70
2021/06/24 00:54:38;;;;;;;0.10;0.10;;;15.50;92.30;;;18.87;78.68;102201.84;5007417;27;96992;-70
2021/06/24 00:57:09;;;;;;;0.30;0.30;;;15.50;92.30;;;18.86;78.07;102203.75;5030224;27;97901;-70
2021/06/24 00:59:39;;;;;;;0.40;0.40;;;15.50;92.30;;;18.83;78.31;102212.53;5020093;27;96838;-70
2021/06/24 01:02:09;;;;;;;3.22;0.95;;;15.50;92.30;;;18.80;78.34;102210.47;5033530;27;96736;-70
2021/06/24 01:04:38;;;;;;;0.68;0.68;;;15.50;92.30;;;18.78;78.31;102209.97;5036453;27;96756;-70
2021/06/24 01:07:07;;;;;;;0.95;0.52;;;15.50;92.30;;;18.80;78.68;102210.47;5028080;27;97905;-70
2021/06/24 01:10:11;;;;;;;0.38;0.38;;;15.50;92.30;;;18.83;78.04;102198.94;5013017;27;97083;-70
2021/06/24 01:12:41;;;;;;;0.13;0.13;;;15.50;92.30;;;18.65;78.68;102191.97;5033441;27;98321;-70
2021/06/24 01:15:11;;;;;;;0.10;0.10;;;15.50;92.40;;;18.60;79.37;102192.09;5030969;27;96883;-70
2021/06/24 01:17:42;;;;;;;0.17;0.17;;;15.50;92.40;;;18.58;79.06;102196.25;5026274;27;96933;-70
2021/06/24 01:20:14;;;;;;;1.33;1.25;;;15.40;92.30;;;18.50;79.37;102202.50;5008223;27;98068;-70
2021/06/24 01:22:42;;;;;;;1.75;1.05;;;15.40;92.30;;;18.47;79.43;102208.56;5018281;27;97674;-70
2021/06/24 01:25:14;;;;;;;0.30;0.30;;;15.40;92.40;;;18.40;79.40;102195.47;5018444;27;97167;-70
2021/06/24 01:27:42;;;;;;;0.05;0.05;;;15.40;92.30;;;18.36;79.73;102194.50;5010135;27;96944;-70
2021/06/24 01:30:13;;;;;;;0.47;0.47;;;15.40;92.30;;;18.38;79.90;102197.69;5016819;27;98713;-70
2021/06/24 01:32:50;;;;;;;0.52;0.52;;;15.40;92.40;;;18.35;79.65;102198.34;5011152;27;97355;-70
2021/06/24 01:35:22;;;;;;;0.17;0.17;;;15.30;92.30;;;18.41;79.58;102197.06;5007628;28;96974;-70
2021/06/24 01:37:56;;;;;;;0.35;0.35;;;15.30;92.40;;;18.31;79.41;102191.91;5033830;27;97361;-70
2021/06/24 01:40:28;;;;;;;0.20;0.15;;;15.30;92.30;;;18.41;79.29;102197.06;5017051;27;97996;-70
2021/06/24 01:43:00;;;;;;;0.00;0.00;;;15.30;92.30;;;18.49;78.73;102192.75;5005993;27;96862;-70
2021/06/24 01:45:33;;;;;;;0.20;0.20;;;15.30;92.30;;;18.47;78.89;102203.91;5011415;28;96978;-70
2021/06/24 01:48:04;;;;;;;0.00;0.00;;;15.30;92.30;;;18.40;79.05;102211.75;5033232;27;97926;-70
2021/06/24 01:50:35;;;;;;;0.50;0.50;;;15.20;92.30;;;18.40;78.99;102203.59;5012245;27;96885;-70
2021/06/24 01:53:05;;;;;;;0.65;0.65;;;15.30;92.40;;;18.43;78.74;102202.97;5007986;27;100446;-70
2021/06/24 01:55:36;;;;;;;0.35;0.35;;;15.20;92.40;;;18.37;78.64;102209.66;5028773;27;96958;-70
2021/06/24 01:58:16;;;;;;;0.00;0.00;;;15.20;92.40;;;18.25;79.17;102203.22;5009389;28;96906;-70
2021/06/24 02:01:14;;;;;;;0.10;0.10;;;15.20;92.40;;;18.22;79.52;102201.94;4957021;28;97964;-70
2021/06/24 02:03:54;;;;;;;0.00;0.00;;;15.20;92.40;;;18.28;79.08;102189.84;5035815;27;96769;-70
2021/06/24 02:06:23;;;;;;;4.20;1.02;;;15.20;92.40;;;18.28;78.88;102192.56;5007370;27;97246;-70
2021/06/24 02:09:00;;;;;;;0.20;0.20;;;15.20;92.40;;;18.29;78.79;102194.16;5017032;27;97925;-70
2021/06/24 02:11:49;;;;;;;0.50;0.38;;;15.10;92.40;;;18.33;78.69;102197.84;5006591;28;97818;-70
2021/06/24 02:14:20;;;;;;;2.83;0.77;;;15.20;92.50;;;18.36;78.66;102194.50;5005188;27;97574;-70
2021/06/24 02:16:49;;;;;;;0.20;0.20;;;15.10;92.50;;;18.17;79.46;102199.38;5006880;28;97827;-70
2021/06/24 02:19:25;;;;;;;0.30;0.30;;;15.10;92.40;;;18.17;79.66;102193.16;5006946;27;97983;-70
2021/06/24 02:22:11;;;;;;;0.10;0.10;;;15.10;92.40;;;18.20;79.47;102190.59;5028523;27;97764;-70
2021/06/24 02:24:53;;;;;;;0.40;0.40;;;15.10;92.40;;;18.16;79.66;102194.25;5005200;27;96900;-70
2021/06/24 02:27:24;;;;;;;0.77;0.60;;;15.10;92.40;;;18.20;79.88;102190.59;5017155;27;98007;-70
2021/06/24 02:30:11;;;;;;;0.22;0.22;;;15.10;92.40;;;18.19;79.44;102178.16;5031359;27;97074;-70
2021/06/24 02:32:41;;;;;;;0.82;0.77;;;15.10;92.50;;;18.13;79.81;102167.75;5011094;27;97124;-70
2021/06/24 02:35:16;;;;;;;0.30;0.30;;;15.10;92.40;;;18.16;79.28;102177.97;5009238;27;97354;-70
2021/06/24 02:37:54;;;;;;;0.70;0.70;;;15.10;92.50;;;18.17;79.22;102174.19;5024627;27;96897;-70
2021/06/24 02:40:32;;;;;;;0.55;0.55;;;15.10;92.50;;;18.16;79.24;102161.69;5026927;27;97914;-70
2021/06/24 02:43:03;;;;;;;1.08;1.00;;;15.10;92.40;;;18.12;78.99;102166.16;5029672;27;97465;-70
2021/06/24 02:45:40;;;;;;;0.40;0.40;;;15.10;92.40;;;18.08;79.15;102171.44;5030085;27;97678;-70
2021/06/24 02:48:14;;;;;;;2.00;0.80;;;15.10;92.40;;;18.01;79.95;102175.72;5024240;27;96926;-70
2021/06/24 02:50:44;;;;;;;5.03;2.05;;;15.00;92.40;;;18.09;79.61;102183.06;4991335;28;97319;-70
2021/06/24 02:53:12;;;;;;;0.65;0.65;;;15.00;92.40;;;18.09;78.96;102173.03;5001415;27;97003;-70
2021/06/24 02:55:45;;;;;;;0.00;0.00;;;15.00;92.50;;;18.18;78.99;102170.34;4997855;27;97968;-70
2021/06/24 02:58:17;;;;;;;1.33;1.23;;;15.00;92.50;;;18.14;79.09;102181.03;5032407;27;96900;-70
2021/06/24 03:00:57;;;;;;;0.10;0.10;;;15.00;92.50;;;18.08;79.68;102176.06;5034148;27;98486;-70
2021/06/24 03:03:38;;;;;;;38.50;0.90;;;15.00;92.50;;;18.01;79.20;102181.94;5003139;28;96813;-70
2021/06/24 03:06:14;;;;;;;12.30;1.30;;;15.00;92.50;;;18.02;79.51;102171.91;5008458;27;96743;-70
2021/06/24 03:08:44;;;;;;;0.22;0.22;;;15.00;92.50;;;18.06;79.78;102168.25;5011468;27;96614;-70
2021/06/24 03:11:16;;;;;;;0.40;0.40;;;15.00;92.50;;;18.10;79.14;102165.69;5013148;27;97937;-70
2021/06/24 03:13:49;;;;;;;0.98;0.98;;;15.00;92.50;;;18.08;79.69;102160.59;5009085;27;97630;-70
2021/06/24 03:16:24;;;;;;;0.30;0.13;;;15.00;92.50;;;18.07;79.77;102156.28;4999984;27;96973;-70
2021/06/24 03:18:53;;;;;;;0.73;0.32;;;15.00;92.50;;;18.05;79.81;102147.66;5010913;27;96892;-69
2021/06/24 03:21:23;;;;;;;1.15;1.08;;;15.00;92.50;;;18.04;79.44;102145.25;5024983;28;96682;-69
2021/06/24 03:23:53;;;;;;;0.10;0.10;;;15.00;92.50;;;18.05;79.54;102144.97;5019231;27;96824;-69
2021/06/24 03:26:22;;;;;;;0.88;0.57;;;15.00;92.40;;;17.97;79.55;102137.59;4995538;27;96921;-69
2021/06/24 03:29:07;;;;;;;1.08;0.75;;;15.00;92.40;;;18.01;79.39;102143.97;5009295;27;97855;-70
2021/06/24 03:31:48;;;;;;;0.75;0.75;;;15.00;92.40;;;18.06;79.28;102151.16;5021794;27;97850;-69
2021/06/24 03:34:21;;;;;;;0.10;0.10;;;15.00;92.40;;;18.06;79.57;102140.31;5006423;27;96828;-69
2021/06/24 03:36:50;;;;;;;5.50;1.45;;;15.00;92.40;;;18.11;79.08;102132.84;5004917;28;97186;-69
2021/06/24 03:39:22;;;;;;;0.60;0.60;;;15.00;92.40;;;18.11;78.85;102126.59;5006345;27;97073;-69
2021/06/24 03:41:51;;;;;;;0.10;0.10;;;15.00;92.30;;;18.09;79.53;102124.22;4993795;28;100021;-69
2021/06/24 03:44:21;;;;;;;2.33;1.25;;;15.00;92.30;;;18.06;78.91;102127.56;5006537;27;97020;-69
2021/06/24 03:46:50;;;;;;;0.10;0.10;;;15.00;92.30;;;18.07;78.93;102129.16;5011005;27;96897;-69
2021/06/24 03:49:20;;;;;;;0.17;0.17;;;15.10;92.30;;;18.21;78.64;102118.16;5010019;28;97308;-69
2021/06/24 03:51:49;;;;;;;0.20;0.20;;;15.00;92.30;;;18.22;79.02;102123.25;5020831;27;97813;-69
2021/06/24 03:54:19;;;;;;;1.00;0.80;;;15.10;92.30;;;18.25;78.89;102117.19;5001506;27;97730;-69
2021/06/24 03:56:48;;;;;;;0.32;0.32;;;15.10;92.20;;;18.32;78.81;102119.47;5011579;27;96978;-69
2021/06/24 03:59:22;;;;;;;0.10;0.10;;;15.10;92.20;;;18.42;78.26;102110.97;5023318;28;96813;-69
2021/06/24 04:01:56;;;;;;;3.45;2.00;;;15.20;92.20;;;18.45;78.43;102105.72;5033014;27;98305;-69
2021/06/24 04:04:25;;;;;;;0.10;0.10;;;15.30;92.10;;;18.54;78.19;102111.94;5032614;27;97737;-69
2021/06/24 04:06:55;;;;;;;0.13;0.13;;;15.30;92.00;;;18.64;77.86;102098.03;5028827;27;97228;-69
2021/06/24 04:09:24;;;;;;;0.22;0.22;;;15.40;92.30;;;18.71;77.99;102097.53;5022408;27;97052;-69
2021/06/24 04:11:53;;;;;;;0.20;0.20;;;15.40;91.90;;;18.85;77.11;102096.22;4986215;28;97941;-69
2021/06/24 04:14:53;;;;;;;0.45;0.45;;;15.50;91.80;;;18.92;77.02;102100.03;5050440;27;96769;-69
2021/06/24 04:17:35;;;;;;;0.63;0.57;;;15.60;91.70;;;18.97;77.19;102101.78;5050522;27;96908;-69
2021/06/24 04:20:08;;;;;;;0.17;0.17;;;15.60;91.70;;;18.99;77.14;102105.75;5063541;27;96649;-69
2021/06/24 04:22:41;;;;;;;0.85;0.85;;;15.60;91.60;;;18.94;76.91;102116.03;5044402;27;97638;-69
2021/06/24 04:25:17;;;;;;;0.08;0.08;;;15.70;91.60;;;18.87;77.52;102110.28;5050480;27;96667;-69
2021/06/24 04:27:50;;;;;;;0.30;0.30;;;15.70;91.60;;;18.95;77.08;102107.53;5048828;27;97038;-70
2021/06/24 04:30:23;;;;;;;0.20;0.20;;;15.70;91.60;;;18.92;77.35;102108.19;5046632;27;97921;-69
2021/06/24 04:32:55;;;;;;;0.05;0.05;;;15.70;91.50;;;18.99;77.23;102096.84;5072214;27;96717;-69
2021/06/24 04:35:44;;;;;;;0.90;0.17;;;15.80;91.80;;;18.98;77.44;102098.75;5046152;27;96881;-69
2021/06/24 04:38:18;;;;;;;0.30;0.30;;;15.80;91.50;;;18.96;77.74;102105.63;5064622;27;98588;-69
2021/06/24 04:40:50;;;;;;;0.00;0.00;;;15.80;91.50;;;18.95;77.44;102104.81;5046042;27;98050;-69
2021/06/24 04:43:21;;;;;;;0.22;0.22;;;15.80;91.40;;;18.88;77.70;102103.72;5032022;27;97872;-69
2021/06/24 04:45:51;;;;;;;0.10;0.10;;;15.70;91.40;;;18.89;77.81;102102.59;5051808;27;97001;-69
2021/06/24 04:48:21;;;;;;;0.25;0.25;;;15.70;91.50;;;18.81;77.67;102108.84;5047758;27;99048;-69
2021/06/24 04:51:05;;;;;;;0.20;0.20;;;15.70;91.40;;;18.79;77.69;102104.88;5046594;27;97008;-69
2021/06/24 04:53:34;;;;;;;0.30;0.28;;;15.70;91.50;;;18.86;78.04;102105.19;5046730;27;96816;-69
2021/06/24 04:56:06;;;;;;;0.45;0.25;;;15.60;91.50;;;18.86;76.99;102116.81;5047691;27;96774;-69
2021/06/24 04:58:35;;;;;;;0.35;0.35;;;15.60;91.50;;;18.88;77.16;102111.88;5045647;27;96878;-69
2021/06/24 05:01:24;;;;;;;0.55;0.55;;;15.50;91.50;;;18.94;77.01;102118.75;5047096;27;97979;-71
2021/06/24 05:04:12;;;;;;;0.13;0.13;;;15.50;91.60;;;18.85;76.94;102115.22;5046275;27;97575;-70
2021/06/24 05:06:41;;;;;;;0.10;0.10;;;15.50;91.60;;;18.91;77.12;102122.09;5043457;27;97582;-70
2021/06/24 05:09:10;;;;;;;0.57;0.52;;;15.50;91.60;;;18.97;76.99;102118.88;5046621;27;96953;-70
2021/06/24 05:11:39;;;;;;;5.47;1.58;;;15.50;91.50;;;19.06;76.92;102124.28;5045559;27;96808;-70
2021/06/24 05:14:08;;;;;;;0.00;0.00;;;15.60;91.60;;;19.02;76.47;102120.63;5045648;27;97633;-70
2021/06/24 05:16:38;;;;;;;0.85;0.73;;;15.60;91.60;;;19.14;76.20;102128.91;5043330;27;97112;-70
2021/06/24 05:19:09;;;;;;;0.05;0.05;;;15.70;91.60;;;19.18;76.29;102125.25;5060190;27;96932;-70
2021/06/24 05:21:39;;;;;;;0.40;0.32;;;15.70;91.50;;;19.24;75.81;102129.38;5046146;27;98239;-70
2021/06/24 05:24:10;;;;;;;0.05;0.05;;;15.70;91.40;;;19.36;76.41;102131.41;5043483;27;98060;-70
2021/06/24 05:26:39;;;;;;;0.35;0.35;;;15.80;91.40;;;19.40;75.12;102132.34;5029158;28;96854;-70
2021/06/24 05:29:08;;;;;;;0.40;0.40;;;15.80;91.40;;;19.45;75.75;102135.69;5030757;27;97028;-70
2021/06/24 05:31:39;;;;;;;0.40;0.40;;;15.80;91.40;;;19.58;74.63;102137.38;5032394;28;97904;-70
2021/06/24 05:34:08;;;;;;;0.93;0.52;;;15.90;91.30;;;19.63;74.42;102142.63;5029718;28;97825;-70
2021/06/24 05:36:37;;;;;;;0.30;0.25;;;15.90;91.20;;;19.65;74.76;102145.03;5033360;28;96906;-70
2021/06/24 05:39:09;;;;;;;0.73;0.73;;;16.00;91.20;;;19.61;75.20;102139.44;5028728;28;97073;-70
2021/06/24 05:41:38;;;;;;;0.70;0.63;;;16.00;91.20;;;19.67;75.03;102153.66;5026883;27;97903;-70
2021/06/24 05:44:07;;;;;;;0.03;0.03;;;16.00;91.20;;;19.70;75.31;102155.72;5012391;28;97693;-69
2021/06/24 05:46:35;;;;;;;0.15;0.15;;;16.10;91.20;;;19.80;74.99;102152.59;5033754;27;96752;-68
2021/06/24 05:49:06;;;;;;;0.68;0.50;;;16.10;91.20;;;19.88;75.15;102149.84;5033347;27;97203;-70
2021/06/24 05:51:35;;;;;;;0.30;0.30;;;16.20;91.10;;;20.06;74.12;102139.66;5030385;27;98752;-70
2021/06/24 05:54:05;;;;;;;2.38;0.80;;;16.30;91.00;;;20.27;74.10;102137.75;5031870;27;97636;-70
2021/06/24 05:56:34;;;;;;;1.95;0.68;;;16.40;90.80;;;20.48;73.48;102146.72;5031387;27;96804;-70
2021/06/24 05:59:04;;;;;;;0.20;0.20;;;16.50;90.60;;;20.70;73.50;102142.47;5032468;27;98013;-70
2021/06/24 06:01:33;;;;;;;1.98;0.82;;;16.70;90.50;;;21.03;71.55;102134.34;5009980;28;98380;-70
2021/06/24 06:04:07;;;;;;;0.70;0.25;;;16.90;90.40;;;21.51;71.18;102132.47;5031413;27;97696;-70
2021/06/24 06:06:36;;;;;;;0.30;0.30;;;17.10;90.20;;;21.84;69.72;102132.38;5011666;28;96730;-70
2021/06/24 06:09:06;;;;;;;0.55;0.50;;;17.30;90.00;;;22.15;69.51;102136.03;5028468;27;97066;-71
2021/06/24 06:11:35;;;;;;;1.10;1.00;;;17.60;89.50;;;22.50;69.04;102128.91;5027818;28;98948;-71
2021/06/24 06:14:06;;;;;;;0.15;0.15;;;17.90;88.90;;;22.84;68.03;102126.34;5028645;28;96923;-70
2021/06/24 06:16:35;;;;;;;0.38;0.38;;;18.30;88.30;;;23.58;66.27;102114.56;5029038;28;96794;-69
2021/06/24 06:19:06;;;;;;;7.57;0.77;;;18.70;87.30;;;25.02;62.38;102114.50;5031013;27;96751;-69
2021/06/24 06:21:35;;;;;;;0.10;0.10;;;19.50;85.60;;;26.67;59.01;102101.22;5028993;27;97872;-69
2021/06/24 06:24:07;;;;;;;2.22;0.68;;;20.70;83.40;;;29.92;52.21;102090.34;5030678;27;97694;-70
2021/06/24 06:26:36;;;;;;;0.47;0.33;;;22.80;79.00;;;31.05;50.20;102102.41;5026612;27;96980;-70
2021/06/24 06:29:05;;;;;;;1.77;1.15;;;24.30;74.60;;;31.59;50.06;102101.53;5033107;28;97407;-70
2021/06/24 06:31:37;;;;;;;1.20;1.10;;;25.30;72.70;;;31.57;51.00;102096.44;5013467;28;97127;-70
2021/06/24 06:34:08;;;;;;;20.23;0.80;;;25.80;71.60;;;33.65;47.98;102073.59;5058501;27;99519;-70
2021/06/24 06:36:37;;;;;;;0.68;0.43;;;27.20;71.00;;;34.89;46.12;102069.31;5031760;27;97053;-70
2021/06/24 06:39:06;;;;;;;0.52;0.40;;;28.60;68.10;;;37.07;42.76;102000.25;5034360;27;97109;-71
2021/06/24 06:41:35;;;;;;;3.72;0.98;;;30.10;65.90;;;38.38;40.70;101962.84;5031221;28;97341;-71
2021/06/24 06:44:05;;;;;;;0.28;0.28;;;31.60;63.90;;;39.82;39.49;101958.03;5025053;27;96763;-71
2021/06/24 06:46:34;;;;;;;2.28;0.52;;;33.00;62.00;;;40.55;38.91;101950.84;5031986;27;97378;-71
2021/06/24 06:49:03;;;;;;;0.15;0.15;;;34.10;60.80;;;41.28;38.39;101944.16;5029573;27;96779;-71
2021/06/24 06:51:34;;;;;;;5.55;0.85;;;35.00;60.00;;;42.21;38.10;101927.31;5029194;28;98017;-71
2021/06/24 06:54:06;;;;;;;2.72;0.40;;;35.90;59.60;;;43.26;37.60;102001.50;5028883;28;98918;-71
2021/06/24 06:56:35;;;;;;;;;;;36.80;59.40;;;44.10;37.06;102047.00;5033718;27;96844;-71
2021/06/24 06:59:06;;;;;;;8.55;0.93;;;37.50;58.70;;;44.74;37.20;102029.44;5030011;27;97550;-71
2021/06/24 07:01:37;;;;;;;0.20;0.20;;;38.20;58.70;;;45.54;36.74;102018.94;5028581;28;98954;-71
2021/06/24 07:04:06;;;;;;;0.15;0.13;;;38.90;58.70;;;46.24;35.83;101940.06;5024568;28;98574;-72
2021/06/24 07:06:38;;;;;;;0.32;0.32;;;39.50;58.50;;;46.72;36.16;101940.41;5025406;27;96803;-72
2021/06/24 07:09:06;;;;;;;0.20;0.17;;;40.00;58.40;;;46.97;36.41;101953.47;5025796;27;97075;-72
2021/06/24 07:11:35;;;;;;;0.32;0.25;;;40.40;58.30;;;47.14;35.79;101942.75;5028383;28;97855;-72
2021/06/24 07:14:04;;;;;;;0.47;0.35;;;40.60;58.40;;;47.41;35.97;101958.84;5028718;28;98703;-72
2021/06/24 07:16:33;;;;;;;0.57;0.55;;;40.80;58.60;;;47.90;35.71;101966.19;5032723;27;96924;-72
2021/06/24 07:19:05;;;;;;;7.72;2.00;;;40.90;58.60;;;48.34;35.00;101960.06;5030074;28;96794;-74
2021/06/24 07:21:35;;;;;;;27.70;0.73;;;41.20;58.60;;;48.60;35.12;101983.81;5032785;28;98918;-78
2021/06/24 07:24:06;;;;;;;15.98;0.70;;;41.50;58.70;;;48.89;34.85;101983.66;5030321;27;96966;-74
2021/06/24 07:26:35;;;;;;;0.32;0.20;;;41.60;59.00;;;49.00;35.00;101991.28;5031586;27;98598;-75
2021/06/24 07:29:04;;;;;;;0.30;0.30;;;41.60;59.30;;;49.56;34.60;102003.44;5025430;27;97579;-70
2021/06/24 07:31:34;;;;;;;0.25;0.10;;;41.80;59.40;;;49.78;34.29;101997.38;5026495;28;96855;-71
2021/06/24 07:34:04;;;;;;;0.20;0.20;;;42.00;59.40;;;50.20;34.39;102005.69;5024315;27;97714;-71
2021/06/24 07:36:33;;;;;;;1.75;0.57;;;42.30;59.40;;;50.49;33.84;102013.94;5029151;28;96987;-71
2021/06/24 07:39:04;;;;;;;0.10;0.10;;;42.50;59.30;;;50.47;33.43;102016.56;5029634;28;97567;-72
2021/06/24 07:41:33;;;;;;;1.52;0.50;;;42.50;58.60;;;50.59;33.06;102017.88;5031532;27;97855;-71
2021/06/24 07:44:04;;;;;;;0.40;0.40;;;42.40;58.80;;;50.39;33.08;102017.03;5028667;27;96917;-72
2021/06/24 07:46:33;;;;;;;3.17;0.90;;;42.20;58.80;;;50.16;32.56;102013.81;5029820;28;96823;-71
2021/06/24 07:49:03;;;;;;;0.20;0.20;;;42.00;58.60;;;48.83;34.78;102027.78;5028972;27;97440;-73
2021/06/24 07:51:32;;;;;;;0.10;0.10;;;41.60;58.80;;;49.77;32.21;102027.97;5028339;27;97966;-71
2021/06/24 07:54:03;;;;;;;0.10;0.10;;;41.40;58.20;;;48.84;33.19;102018.69;5027873;28;97872;-72
2021/06/24 07:56:32;;;;;;;0.20;0.15;;;40.80;58.60;;;50.13;31.99;102031.25;5030801;28;96800;-75
2021/06/24 07:59:01;;;;;;;1.55;0.45;;;40.70;59.50;;;50.09;32.14;102034.41;5031203;28;96812;-74
2021/06/24 08:01:33;;;;;;;0.10;0.10;;;40.80;60.00;;;50.93;31.40;102024.44;5027434;27;97024;-74
2021/06/24 08:04:06;;;;;;;4.05;0.55;;;41.00;60.30;;;50.29;32.14;102025.22;5031136;28;97822;-74
2021/06/24 08:06:35;;;;;;;5.00;0.52;;;41.20;59.70;;;46.17;39.85;102025.66;5030792;28;97846;-74
2021/06/24 08:09:10;;;;;;;0.13;0.13;;;40.30;60.40;;;43.69;43.66;102022.22;5011805;28;96875;-72
2021/06/24 08:11:39;;;;;;;0.28;0.28;;;39.00;61.80;;;45.78;38.69;102022.06;5026457;27;98887;-75
2021/06/24 08:14:09;;;;;;;0.30;0.30;;;38.20;63.20;;;45.53;38.09;102020.22;5026260;28;97881;-75
2021/06/24 08:16:37;;;;;;;5.55;0.90;;;37.80;63.60;;;44.43;40.66;102023.84;5029498;27;97658;-74
2021/06/24 08:19:06;;;;;;;2.33;0.70;;;37.40;63.30;;;44.30;39.74;102023.50;5027494;28;97294;-72
2021/06/24 08:21:36;;;;;;;2.53;0.85;;;37.00;63.90;;;43.38;41.72;102028.56;5024468;28;97445;-72
2021/06/24 08:24:07;;;;;;;0.77;0.63;;;36.70;64.20;;;42.03;44.47;102021.25;5008741;28;97743;-70
2021/06/24 08:26:36;;;;;;;0.88;0.40;;;36.30;64.50;;;42.80;41.82;102013.22;5041557;27;97053;-71
2021/06/24 08:29:05;;;;;;;0.15;0.15;;;35.80;65.10;;;42.07;43.36;102013.44;5029086;27;97011;-67
2021/06/24 08:31:37;;;;;;;0.22;0.22;;;35.60;66.10;;;41.69;45.05;102015.56;5023986;27;97936;-68
2021/06/24 08:34:06;;;;;;;9.80;1.00;;;35.40;66.40;;;39.26;49.12;102015.94;5021667;28;97672;-69
2021/06/24 08:36:35;;;;;;;0.10;0.00;;;34.80;65.80;;;37.72;51.61;102022.22;5025813;28;97091;-69
2021/06/24 08:39:07;;;;;;;0.47;0.28;;;33.90;67.10;;;36.35;54.22;102025.34;5031146;27;96834;-68
2021/06/24 08:41:37;;;;;;;0.30;0.30;;;33.00;67.90;;;35.28;56.26;102024.50;5028326;27;97196;-67
2021/06/24 08:44:09;;;;;;;0.45;0.45;;;32.20;69.20;;;34.48;57.36;102024.50;5024505;27;97156;-68
2021/06/24 08:46:39;;;;;;;0.55;0.52;;;31.50;69.90;;;35.21;55.34;102019.13;5025142;27;96948;-68
2021/06/24 08:49:10;;;;;;;0.55;0.28;;;31.10;71.00;;;36.83;50.77;102025.00;5024750;27;97009;-68
2021/06/24 08:51:39;;;;;;;0.45;0.32;;;31.00;70.80;;;38.67;46.79;102019.25;5027840;27;96823;-68
2021/06/24 08:54:28;;;;;;;0.63;0.50;;;31.40;70.40;;;38.01;48.35;102019.94;5028499;27;96996;-68
2021/06/24 08:56:56;;;;;;;0.80;0.80;;;31.60;70.30;;;37.93;48.54;102020.66;5025554;28;96867;-68
2021/06/24 08:59:25;;;;;;;0.65;0.60;;;31.70;70.40;;;36.44;52.63;102019.09;5024347;27;97661;-68
2021/06/24 09:01:57;;;;;;;0.40;0.40;;;31.60;70.60;;;35.57;54.39;102014.13;5028115;28;97973;-71
2021/06/24 09:04:51;;;;;;;0.98;0.88;;;31.30;70.80;;;36.42;51.57;102013.94;5030887;28;97850;-69
2021/06/24 09:07:21;;;;;;;0.15;0.15;;;30.90;70.80;;;37.36;49.45;102020.38;5033863;27;96680;-69
2021/06/24 09:09:56;;;;;;;0.65;0.55;;;30.90;71.10;;;36.75;50.94;102017.31;5032667;27;97105;-69
2021/06/24 09:12:27;;;;;;;0.85;0.47;;;31.00;71.30;;;35.59;54.07;102017.25;5030998;27;97273;-70
2021/06/24 09:15:15;;;;;;;13.20;0.68;;;30.80;71.80;;;38.49;47.52;102008.03;5030098;28;97675;-72
2021/06/24 09:17:46;;;;;;;1.02;0.43;;;30.80;72.40;;;41.20;42.57;102014.59;5031720;27;96889;-72
2021/06/24 09:20:34;;;;;;;1.17;0.43;;;31.40;72.40;;;39.07;47.22;102020.00;5034880;28;96943;-72
2021/06/24 09:23:08;;;;;;;0.55;0.40;;;31.90;71.20;;;36.84;52.28;102014.59;5029509;28;96749;-72
2021/06/24 09:25:42;;;;;;;1.30;1.13;;;31.80;71.10;;;36.73;52.51;102012.16;5028423;28;97875;-72
2021/06/24 09:28:13;;;;;;;0.20;0.20;;;31.50;71.40;;;39.74;45.29;102009.38;5023672;27;97219;-70
2021/06/24 09:30:45;;;;;;;0.73;0.40;;;31.60;71.90;;;39.63;46.36;102018.28;5029143;27;96967;-70
2021/06/24 09:33:17;;;;;;;1.67;0.98;;;31.90;71.50;;;41.14;43.75;102005.25;5039454;27;97236;-71
2021/06/24 09:35:56;;;;;;;0.10;0.10;;;32.40;71.40;;;39.68;46.78;102011.28;5026550;27;97190;-71
2021/06/24 09:38:25;;;;;;;0.60;0.60;;;32.60;70.90;;;38.54;49.76;102010.22;5031194;28;97292;-72
2021/06/24 09:40:57;;;;;;;0.70;0.70;;;32.60;70.70;;;37.11;53.26;102006.50;5030490;27;97666;-72
2021/06/24 09:43:36;;;;;;;0.40;0.38;;;32.40;71.00;;;36.67;53.60;102013.19;5032672;28;98972;-71
2021/06/24 09:46:12;;;;;;;0.65;0.57;;;32.00;71.40;;;35.90;55.87;102012.03;5011943;28;96905;-72
2021/06/24 09:48:44;;;;;;;0.82;0.82;;;31.70;72.20;;;35.40;56.76;102018.19;5011113;28;97482;-72
2021/06/24 09:51:19;;;;;;;0.45;0.45;;;31.40;72.50;;;35.26;56.76;102015.81;5025509;27;97256;-72
2021/06/24 09:53:58;;;;;;;0.32;0.32;;;31.20;72.60;;;35.12;56.45;102016.13;5045209;27;97343;-69
2021/06/24 09:56:34;;;;;;;0.28;0.22;;;30.90;72.90;;;35.35;55.66;102015.19;5030478;28;98757;-71
2021/06/24 09:59:07;;;;;;;0.28;0.28;;;30.70;73.00;;;35.46;55.62;102010.88;5029465;28;97295;-70
2021/06/24 10:01:40;;;;;;;0.47;0.47;;;30.50;73.80;;;34.32;58.92;102005.03;5030563;27;96966;-70
2021/06/24 10:04:21;;;;;;;0.38;0.38;;;30.30;74.50;;;33.66;60.39;102006.41;5029344;28;97964;-70
2021/06/24 10:06:52;;;;;;;12.63;0.60;;;30.10;74.60;;;32.91;61.50;102011.00;5029010;28;98061;-71
2021/06/24 10:09:22;;;;;;;2.63;0.95;;;29.70;75.10;;;33.08;61.22;102009.13;5028680;28;97153;-71
2021/06/24 10:11:55;;;;;;;0.45;0.45;;;29.30;75.60;;;33.07;60.55;101996.44;5031948;27;97124;-69
2021/06/24 10:14:24;;;;;;;0.73;0.68;;;29.20;75.90;;;32.60;61.73;102003.16;5061197;27;98280;-73
2021/06/24 10:16:55;;;;;;;1.05;0.43;;;29.00;76.40;;;32.60;61.25;102008.72;5024814;28;97847;-72
2021/06/24 10:19:31;;;;;;;0.73;0.57;;;28.80;76.40;;;32.21;62.08;102005.75;5029304;28;97056;-69
2021/06/24 10:22:06;;;;;;;0.30;0.30;;;28.60;76.50;;;31.51;63.31;102014.91;5030651;28;97036;-71
2021/06/24 10:24:43;;;;;;;2.33;0.47;;;28.30;76.30;;;31.46;63.16;102012.59;5030409;28;97870;-71
2021/06/24 10:27:14;;;;;;;0.57;0.57;;;28.10;76.70;;;32.36;61.27;102017.44;5022979;27;98646;-73
2021/06/24 10:29:48;;;;;;;1.65;0.60;;;28.10;77.30;;;33.64;58.24;102005.31;5027522;28;97019;-73
2021/06/24 10:32:30;;;;;;;1.60;0.60;;;28.50;77.40;;;34.23;57.85;102010.41;5030939;28;96889;-71
2021/06/24 10:35:04;;;;;;;0.25;0.25;;;29.00;76.80;;;34.42;57.52;102008.78;5025722;28;97847;-71